Time;durP1;ratioP1;P1;durP2;ratioP2;P2;SDS_P1;SDS_P2;PMS_P1;PMS_P2;Temp;Humidity;BMP_temperature;BMP_pressure;BME280_temperature;BME280_humidity;BME280_pressure;Samples;Min_cycle;Max_cycle;Signal;HPM_P1;HPM_P2
2021/06/28 00:01:28;;;;;;;8.88;3.75;;;25.70;48.70;;;;;;5136514;27;20053;-44
2021/06/28 00:03:54;;;;;;;6.63;3.92;;;25.70;48.70;;;;;;5149587;27;20475;-43
2021/06/28 00:06:20;;;;;;;4.55;3.67;;;25.70;48.70;;;;;;5122671;28;20023;-43
2021/06/28 00:08:46;;;;;;;5.15;3.75;;;25.60;48.80;;;;;;5132010;28;20080;-43
2021/06/28 00:11:13;;;;;;;4.43;3.55;;;25.60;48.80;;;;;;5148396;27;20455;-42
2021/06/28 00:13:42;;;;;;;8.65;4.03;;;25.60;48.80;;;;;;5137330;27;20023;-41
2021/06/28 00:16:08;;;;;;;5.03;3.70;;;25.70;48.90;;;;;;5125967;27;20030;-42
2021/06/28 00:18:34;;;;;;;6.60;3.67;;;25.70;48.90;;;;;;5152560;27;20079;-41
2021/06/28 00:21:01;;;;;;;4.45;3.50;;;25.60;48.90;;;;;;5140595;27;20473;-42
2021/06/28 00:23:27;;;;;;;4.20;3.38;;;25.60;49.00;;;;;;5133167;28;20037;-42
2021/06/28 00:25:53;;;;;;;6.57;3.90;;;25.50;49.30;;;;;;5132921;27;20028;-43
2021/06/28 00:28:21;;;;;;;6.30;3.85;;;25.40;49.40;;;;;;5147417;27;20015;-43
2021/06/28 00:30:48;;;;;;;5.25;3.92;;;25.40;49.40;;;;;;5150532;27;20030;-46
2021/06/28 00:33:17;;;;;;;5.68;3.40;;;25.40;49.40;;;;;;5153761;27;20023;-43
2021/06/28 00:35:44;;;;;;;6.10;3.95;;;25.50;49.50;;;;;;5148365;27;20024;-49
2021/06/28 00:38:10;;;;;;;8.18;3.78;;;25.50;49.50;;;;;;5153149;27;20056;-44
2021/06/28 00:40:37;;;;;;;9.10;3.38;;;25.50;49.50;;;;;;5124996;27;20066;-45
2021/06/28 00:43:03;;;;;;;4.47;3.40;;;25.40;49.50;;;;;;5143869;27;20037;-45
2021/06/28 00:45:32;;;;;;;5.57;3.70;;;25.50;49.70;;;;;;5134517;27;20110;-43
2021/06/28 00:48:06;;;;;;;6.82;3.80;;;25.40;49.70;;;;;;5126392;27;20114;-41
2021/06/28 00:50:34;;;;;;;4.93;3.72;;;25.30;49.80;;;;;;5146300;27;20058;-44
2021/06/28 00:53:04;;;;;;;5.45;3.42;;;25.30;50.00;;;;;;5156498;27;20360;-42
2021/06/28 00:55:31;;;;;;;6.43;3.70;;;25.30;50.10;;;;;;5143689;27;20050;-42
2021/06/28 00:57:57;;;;;;;8.77;3.88;;;25.30;50.00;;;;;;5136962;27;20054;-43
2021/06/28 01:00:23;;;;;;;6.32;3.90;;;25.30;50.20;;;;;;5141491;27;20081;-42
2021/06/28 01:02:49;;;;;;;5.32;3.78;;;25.20;50.50;;;;;;5144900;27;20110;-41
2021/06/28 01:05:19;;;;;;;4.63;3.70;;;25.10;50.60;;;;;;5133781;27;20102;-44
2021/06/28 01:07:46;;;;;;;7.40;3.70;;;25.00;50.60;;;;;;5138253;27;20023;-42
2021/06/28 01:10:14;;;;;;;5.10;3.95;;;25.10;50.60;;;;;;5133659;27;20042;-42
2021/06/28 01:12:41;;;;;;;5.22;3.20;;;25.10;50.50;;;;;;5147746;27;20108;-42
2021/06/28 01:15:08;;;;;;;4.57;3.78;;;25.20;50.50;;;;;;5133774;27;20046;-43
2021/06/28 01:17:53;;;;;;;5.40;3.63;;;25.20;50.50;;;;;;5148672;27;20051;-42
2021/06/28 01:20:24;;;;;;;5.05;3.80;;;25.10;50.70;;;;;;5137867;27;20088;-41
2021/06/28 01:22:52;;;;;;;5.95;3.70;;;25.10;50.70;;;;;;5135762;27;20026;-42
2021/06/28 01:25:21;;;;;;;4.47;3.50;;;25.10;50.80;;;;;;5149079;27;20027;-43
2021/06/28 01:27:47;;;;;;;5.32;3.67;;;25.00;50.90;;;;;;5151975;27;20023;-42
2021/06/28 01:30:18;;;;;;;5.97;3.80;;;25.00;51.00;;;;;;5145156;27;20138;-43
2021/06/28 01:32:45;;;;;;;9.15;4.30;;;25.00;51.00;;;;;;5135707;27;20031;-43
2021/06/28 01:35:12;;;;;;;6.53;3.70;;;25.00;51.00;;;;;;5136096;27;20096;-42
2021/06/28 01:37:38;;;;;;;6.65;4.07;;;24.90;51.20;;;;;;5140765;27;20051;-42
2021/06/28 01:40:07;;;;;;;5.03;3.95;;;24.80;51.40;;;;;;5129685;27;20061;-42
2021/06/28 01:42:35;;;;;;;6.05;3.97;;;24.80;51.40;;;;;;5143777;27;20050;-42
2021/06/28 01:45:03;;;;;;;5.47;3.85;;;24.80;51.50;;;;;;5154160;27;20102;-42
2021/06/28 01:47:29;;;;;;;5.43;3.70;;;24.90;51.50;;;;;;5137160;27;20034;-42
2021/06/28 01:49:54;;;;;;;5.63;3.60;;;24.80;51.40;;;;;;5135321;27;20023;-42
2021/06/28 01:52:20;;;;;;;5.05;3.83;;;24.90;51.40;;;;;;5155930;27;20022;-41
2021/06/28 01:54:46;;;;;;;6.55;4.25;;;24.90;51.50;;;;;;5143967;27;20423;-42
2021/06/28 01:57:11;;;;;;;6.47;4.32;;;24.90;51.60;;;;;;5134923;27;20027;-43
2021/06/28 01:59:38;;;;;;;6.68;4.25;;;24.80;52.10;;;;;;5116615;27;20110;-47
2021/06/28 02:02:06;;;;;;;6.28;3.83;;;24.70;52.20;;;;;;5153115;27;20105;-43
2021/06/28 02:04:33;;;;;;;7.20;4.20;;;24.70;52.30;;;;;;5135963;27;20026;-47
2021/06/28 02:07:00;;;;;;;6.40;4.45;;;24.70;52.30;;;;;;5138212;27;20034;-43
2021/06/28 02:09:44;;;;;;;7.25;4.55;;;24.70;52.30;;;;;;5134866;27;20533;-44
2021/06/28 02:12:10;;;;;;;7.70;4.55;;;24.70;52.40;;;;;;5107559;27;20109;-42
2021/06/28 02:14:36;;;;;;;7.72;4.57;;;24.80;52.30;;;;;;5156521;27;20054;-43
2021/06/28 02:17:02;;;;;;;9.70;4.75;;;24.70;52.50;;;;;;5133721;27;20027;-45
2021/06/28 02:19:28;;;;;;;6.85;4.53;;;24.60;52.60;;;;;;5134557;27;20023;-44
2021/06/28 02:21:54;;;;;;;7.07;5.03;;;24.60;52.60;;;;;;5130452;27;20069;-50
2021/06/28 02:24:20;;;;;;;8.95;4.53;;;24.60;52.80;;;;;;5146024;27;20027;-43
2021/06/28 02:26:46;;;;;;;7.88;3.78;;;24.60;52.90;;;;;;5147682;27;20534;-43
2021/06/28 02:29:13;;;;;;;8.10;4.40;;;24.40;53.20;;;;;;5135997;27;20045;-46
2021/06/28 02:31:40;;;;;;;5.72;4.70;;;24.40;53.30;;;;;;5153131;27;20030;-43
2021/06/28 02:34:05;;;;;;;6.38;4.50;;;24.40;53.40;;;;;;5150640;27;20053;-42
2021/06/28 02:36:31;;;;;;;6.13;4.30;;;24.40;53.40;;;;;;5136342;27;20459;-44
2021/06/28 02:38:58;;;;;;;5.53;4.30;;;24.40;53.60;;;;;;5117736;27;20420;-43
2021/06/28 02:41:25;;;;;;;5.93;4.05;;;24.40;53.50;;;;;;5152334;27;20042;-45
2021/06/28 02:43:53;;;;;;;8.02;4.50;;;24.40;53.40;;;;;;5142072;27;20023;-43
2021/06/28 02:46:20;;;;;;;7.05;4.85;;;24.40;53.20;;;;;;5134064;27;20058;-44
2021/06/28 02:48:46;;;;;;;6.40;4.45;;;24.40;53.30;;;;;;5116388;27;20102;-43
2021/06/28 02:51:14;;;;;;;7.18;4.72;;;24.30;53.50;;;;;;5135039;27;20035;-46
2021/06/28 02:53:40;;;;;;;9.52;4.70;;;24.40;53.60;;;;;;5151069;27;20041;-43
2021/06/28 02:56:12;;;;;;;6.10;4.75;;;24.40;53.60;;;;;;5153294;27;20105;-44
2021/06/28 02:58:39;;;;;;;11.57;5.10;;;24.40;53.60;;;;;;5154725;27;20025;-49
2021/06/28 03:01:05;;;;;;;6.68;4.93;;;24.40;53.50;;;;;;5144718;27;20066;-43
2021/06/28 03:03:32;;;;;;;6.38;4.78;;;24.40;53.30;;;;;;5145468;27;20426;-44
2021/06/28 03:05:57;;;;;;;8.77;4.70;;;24.40;53.40;;;;;;5124272;27;20080;-43
2021/06/28 03:08:23;;;;;;;9.27;4.88;;;24.40;53.50;;;;;;5132776;27;20022;-44
2021/06/28 03:10:49;;;;;;;5.93;4.60;;;24.40;53.50;;;;;;5144117;27;20110;-45
2021/06/28 03:13:15;;;;;;;8.10;5.05;;;24.30;53.50;;;;;;5139683;27;20098;-45
2021/06/28 03:15:41;;;;;;;7.53;4.75;;;24.30;53.60;;;;;;5115114;27;20418;-43
2021/06/28 03:18:07;;;;;;;9.57;4.78;;;24.30;53.60;;;;;;5114827;27;20027;-43
2021/06/28 03:20:32;;;;;;;9.00;4.40;;;24.20;53.80;;;;;;5135049;27;20031;-43
2021/06/28 03:22:58;;;;;;;6.80;5.10;;;24.20;53.80;;;;;;5137976;27;20027;-43
2021/06/28 03:25:24;;;;;;;6.25;4.70;;;24.20;53.80;;;;;;5142271;27;20030;-44
2021/06/28 03:27:50;;;;;;;6.13;4.30;;;24.30;53.80;;;;;;5150778;27;20034;-43
2021/06/28 03:30:16;;;;;;;6.30;4.65;;;24.30;53.80;;;;;;5141247;27;20027;-42
2021/06/28 03:32:44;;;;;;;5.68;5.03;;;24.10;54.00;;;;;;5135612;27;20053;-42
2021/06/28 03:35:11;;;;;;;7.00;5.38;;;24.10;54.10;;;;;;5132309;27;20495;-43
2021/06/28 03:37:37;;;;;;;7.78;4.47;;;24.10;54.10;;;;;;5121262;27;20058;-45
2021/06/28 03:40:04;;;;;;;7.38;5.38;;;24.30;53.90;;;;;;5134138;27;20034;-42
2021/06/28 03:42:30;;;;;;;5.38;4.60;;;24.30;53.70;;;;;;5132129;27;20113;-43
2021/06/28 03:44:55;;;;;;;9.02;4.90;;;24.30;53.40;;;;;;5132282;27;20074;-45
2021/06/28 03:47:21;;;;;;;6.05;4.30;;;24.30;53.50;;;;;;5153413;27;20061;-42
2021/06/28 03:49:47;;;;;;;6.65;4.80;;;24.30;53.60;;;;;;5133710;27;20099;-46
2021/06/28 03:52:12;;;;;;;5.00;4.50;;;24.30;53.70;;;;;;5134774;27;20023;-42
2021/06/28 03:54:38;;;;;;;7.97;5.13;;;24.40;53.70;;;;;;5152381;27;20026;-44
2021/06/28 03:57:04;;;;;;;8.48;4.22;;;24.40;53.60;;;;;;5118460;27;20051;-43
2021/06/28 03:59:30;;;;;;;6.38;4.68;;;24.40;53.40;;;;;;5114458;27;20421;-45
2021/06/28 04:01:55;;;;;;;9.18;5.00;;;24.50;53.30;;;;;;5135463;27;20065;-43
2021/06/28 04:04:21;;;;;;;6.38;4.97;;;24.60;53.10;;;;;;5133980;27;20029;-42
2021/06/28 04:06:47;;;;;;;8.15;4.93;;;24.40;53.40;;;;;;5146478;27;20096;-44
2021/06/28 04:09:12;;;;;;;8.48;5.07;;;24.30;53.70;;;;;;5152364;27;20451;-43
2021/06/28 04:11:38;;;;;;;6.00;5.00;;;24.30;53.70;;;;;;5138182;27;20483;-44
2021/06/28 04:14:04;;;;;;;9.13;4.70;;;24.40;53.70;;;;;;5132765;27;20019;-43
2021/06/28 04:16:30;;;;;;;6.95;4.78;;;24.40;53.70;;;;;;5122974;27;20023;-47
2021/06/28 04:19:14;;;;;;;6.53;4.85;;;24.50;53.60;;;;;;5143079;27;20015;-42
2021/06/28 04:21:40;;;;;;;7.28;5.10;;;24.40;53.60;;;;;;5136811;27;20040;-45
2021/06/28 04:24:06;;;;;;;7.25;4.35;;;24.40;53.60;;;;;;5132575;27;20022;-42
2021/06/28 04:26:32;;;;;;;9.45;5.10;;;24.50;53.60;;;;;;5148759;27;20027;-43
2021/06/28 04:28:59;;;;;;;9.38;5.57;;;24.60;53.20;;;;;;5130978;27;20114;-42
2021/06/28 04:31:27;;;;;;;7.15;5.28;;;24.60;52.90;;;;;;5122429;27;20055;-45
2021/06/28 04:33:53;;;;;;;6.30;5.38;;;24.60;52.80;;;;;;5126699;27;20027;-43
2021/06/28 04:36:19;;;;;;;9.32;4.78;;;24.60;53.10;;;;;;5141524;27;20050;-43
2021/06/28 04:38:45;;;;;;;8.05;4.97;;;24.60;53.10;;;;;;5150107;27;20044;-43
2021/06/28 04:41:10;;;;;;;10.23;5.10;;;24.60;53.00;;;;;;5138842;27;20546;-43
2021/06/28 04:43:36;;;;;;;7.88;5.50;;;24.80;52.70;;;;;;5128441;27;20117;-43
2021/06/28 04:46:02;;;;;;;6.75;5.00;;;24.80;52.60;;;;;;5153010;27;20026;-43
2021/06/28 04:48:28;;;;;;;6.75;4.78;;;24.80;52.50;;;;;;5129386;27;20121;-44
2021/06/28 04:50:53;;;;;;;8.50;5.32;;;24.90;52.60;;;;;;5152540;27;20135;-45
2021/06/28 04:53:19;;;;;;;9.07;5.00;;;24.90;52.50;;;;;;5143757;27;20058;-46
2021/06/28 04:55:45;;;;;;;11.43;5.93;;;24.90;52.50;;;;;;5131757;27;20386;-45
2021/06/28 04:58:10;;;;;;;12.40;5.38;;;24.90;52.60;;;;;;5137028;27;20112;-42
2021/06/28 05:00:37;;;;;;;9.35;5.28;;;24.90;52.60;;;;;;5120800;27;20398;-42
2021/06/28 05:03:03;;;;;;;9.05;5.78;;;24.90;52.60;;;;;;5149458;27;20068;-43
2021/06/28 05:05:29;;;;;;;7.80;5.40;;;25.00;52.50;;;;;;5156723;27;20022;-43
2021/06/28 05:07:56;;;;;;;9.57;5.75;;;25.10;52.50;;;;;;5142922;27;20034;-43
2021/06/28 05:10:22;;;;;;;7.55;5.50;;;25.00;52.60;;;;;;5151364;27;20038;-45
2021/06/28 05:12:48;;;;;;;8.32;6.10;;;25.10;52.50;;;;;;5153028;27;20027;-44
2021/06/28 05:15:15;;;;;;;10.63;5.35;;;25.20;52.40;;;;;;5149282;27;20399;-45
2021/06/28 05:17:41;;;;;;;10.23;5.90;;;25.20;52.60;;;;;;5117426;27;20034;-44
2021/06/28 05:20:10;;;;;;;14.35;5.30;;;25.20;52.40;;;;;;5138357;27;20035;-41
2021/06/28 05:22:36;;;;;;;9.40;5.57;;;25.40;51.80;;;;;;5136315;27;20053;-45
2021/06/28 05:25:03;;;;;;;10.10;5.40;;;25.50;51.50;;;;;;5140216;27;20031;-42
2021/06/28 05:27:29;;;;;;;12.02;5.72;;;25.50;51.20;;;;;;5131001;27;20435;-42
2021/06/28 05:29:55;;;;;;;15.27;5.68;;;25.60;51.00;;;;;;5143066;27;20027;-46
2021/06/28 05:32:25;;;;;;;9.52;5.50;;;25.70;51.10;;;;;;5134190;27;20123;-42
2021/06/28 05:34:53;;;;;;;12.70;5.90;;;25.80;50.80;;;;;;5123862;27;20031;-45
2021/06/28 05:37:19;;;;;;;18.67;6.57;;;25.90;50.60;;;;;;5141158;27;20075;-43
2021/06/28 05:39:46;;;;;;;23.10;5.78;;;26.00;50.40;;;;;;5145104;27;20019;-44
2021/06/28 05:42:12;;;;;;;15.10;5.78;;;26.10;50.20;;;;;;5144001;27;20026;-42
2021/06/28 05:44:38;;;;;;;9.43;5.63;;;26.10;50.10;;;;;;5146138;27;20025;-43
2021/06/28 05:47:05;;;;;;;13.52;6.07;;;26.10;50.00;;;;;;5134558;27;20024;-44
2021/06/28 05:49:31;;;;;;;13.50;5.45;;;26.20;49.90;;;;;;5135393;27;20479;-42
2021/06/28 05:51:59;;;;;;;8.25;4.72;;;26.20;49.90;;;;;;5141546;27;20077;-42
2021/06/28 05:54:25;;;;;;;13.75;5.35;;;26.20;49.70;;;;;;5137425;27;20458;-45
2021/06/28 05:56:51;;;;;;;9.18;5.95;;;26.30;49.60;;;;;;5137386;27;20030;-41
2021/06/28 05:59:16;;;;;;;12.63;5.60;;;26.40;49.60;;;;;;5137029;27;20031;-42
2021/06/28 06:01:42;;;;;;;11.82;5.80;;;26.40;49.80;;;;;;5133337;27;20395;-43
2021/06/28 06:04:13;;;;;;;8.80;5.53;;;26.30;49.80;;;;;;5132416;27;20079;-43
2021/06/28 06:06:40;;;;;;;10.15;6.22;;;26.40;50.00;;;;;;5134914;27;20529;-43
2021/06/28 06:09:06;;;;;;;15.75;6.15;;;26.40;49.80;;;;;;5133871;27;20106;-42
2021/06/28 06:11:31;;;;;;;9.90;6.35;;;26.50;49.50;;;;;;5132163;27;20099;-52
2021/06/28 06:13:57;;;;;;;11.70;6.13;;;26.60;49.50;;;;;;5134244;27;20026;-51
2021/06/28 06:16:24;;;;;;;15.45;6.45;;;26.80;49.20;;;;;;5133422;27;20019;-55
2021/06/28 06:18:50;;;;;;;10.25;6.03;;;26.90;49.00;;;;;;5133579;27;20030;-50
2021/06/28 06:21:16;;;;;;;15.85;6.15;;;27.00;48.70;;;;;;5124439;27;20032;-53
2021/06/28 06:23:42;;;;;;;11.55;5.95;;;27.40;48.40;;;;;;5115687;27;20517;-52
2021/06/28 06:26:08;;;;;;;14.75;6.53;;;27.70;47.80;;;;;;5111739;28;20020;-55
2021/06/28 06:28:33;;;;;;;15.88;6.70;;;28.00;47.40;;;;;;5112683;27;20055;-49
2021/06/28 06:30:59;;;;;;;8.90;6.50;;;28.10;46.60;;;;;;5132392;27;20030;-51
2021/06/28 06:33:43;;;;;;;10.32;6.30;;;28.00;46.40;;;;;;5134057;27;20358;-53
2021/06/28 06:36:09;;;;;;;11.13;6.72;;;28.10;46.50;;;;;;5132627;27;20029;-55
2021/06/28 06:38:35;;;;;;;10.68;6.45;;;28.00;46.40;;;;;;5134402;27;20426;-54
2021/06/28 06:41:01;;;;;;;9.73;6.03;;;28.20;46.40;;;;;;5123018;27;20318;-55
2021/06/28 06:43:26;;;;;;;13.32;5.35;;;28.50;45.90;;;;;;5111937;28;20023;-52
2021/06/28 06:45:53;;;;;;;11.35;6.22;;;28.80;45.50;;;;;;5111498;28;20110;-54
2021/06/28 06:48:19;;;;;;;22.85;6.68;;;28.90;45.00;;;;;;5112719;28;20304;-55
2021/06/28 06:50:45;;;;;;;9.02;6.55;;;29.00;44.90;;;;;;5113212;28;20026;-53
2021/06/28 06:53:11;;;;;;;12.32;8.27;;;29.10;44.80;;;;;;5128049;27;20023;-53
2021/06/28 06:55:36;;;;;;;10.80;6.30;;;30.80;43.20;;;;;;5117460;27;20059;-51
2021/06/28 06:58:08;;;;;;;10.70;5.95;;;34.40;38.10;;;;;;5116373;27;20054;-58
2021/06/28 07:00:34;;;;;;;11.98;6.95;;;37.70;34.70;;;;;;5139464;27;20193;-54
2021/06/28 07:03:01;;;;;;;10.57;5.93;;;40.60;30.30;;;;;;5135763;27;20015;-52
2021/06/28 07:05:27;;;;;;;11.10;5.70;;;42.10;29.00;;;;;;5151996;27;20051;-51
2021/06/28 07:07:52;;;;;;;11.27;5.38;;;43.10;27.90;;;;;;5118303;27;20103;-65
2021/06/28 07:10:18;;;;;;;8.35;6.25;;;43.90;27.40;;;;;;5133342;27;20031;-60
2021/06/28 07:12:45;;;;;;;10.48;6.30;;;43.40;26.80;;;;;;5127506;27;20532;-59
2021/06/28 07:15:13;;;;;;;12.02;6.80;;;42.70;27.10;;;;;;5137258;27;20031;-59
2021/06/28 07:17:41;;;;;;;7.80;5.40;;;41.60;27.70;;;;;;5139428;27;20022;-60
2021/06/28 07:20:10;;;;;;;10.65;5.45;;;41.60;28.10;;;;;;5133071;27;20030;-59
2021/06/28 07:22:36;;;;;;;10.25;5.55;;;41.80;27.90;;;;;;5112125;27;20023;-60
2021/06/28 07:25:04;;;;;;;10.00;5.60;;;42.30;27.70;;;;;;5114586;27;20019;-56
2021/06/28 07:27:30;;;;;;;10.32;6.82;;;42.00;27.40;;;;;;5132763;27;20026;-61
2021/06/28 07:29:55;;;;;;;9.80;6.00;;;41.80;27.90;;;;;;5114711;27;20041;-58
2021/06/28 07:32:21;;;;;;;8.77;5.40;;;41.80;27.70;;;;;;5132095;27;20467;-58
2021/06/28 07:34:48;;;;;;;9.02;5.90;;;41.80;27.80;;;;;;5131663;27;20019;-60
2021/06/28 07:37:13;;;;;;;8.88;5.60;;;41.80;27.90;;;;;;5115977;27;20352;-60
2021/06/28 07:39:39;;;;;;;9.38;5.45;;;42.30;27.80;;;;;;5132035;27;20045;-61
2021/06/28 07:42:05;;;;;;;8.57;5.53;;;43.40;27.20;;;;;;5112950;27;20036;-54
2021/06/28 07:44:31;;;;;;;6.60;5.55;;;43.30;26.70;;;;;;5113492;27;20023;-62
2021/06/28 07:46:57;;;;;;;9.98;5.93;;;43.00;26.80;;;;;;5132303;27;20099;-59
2021/06/28 07:49:23;;;;;;;7.60;6.05;;;44.20;26.30;;;;;;5113647;27;20019;-60
2021/06/28 07:51:49;;;;;;;9.90;5.93;;;44.60;25.90;;;;;;5115398;27;20043;-59
2021/06/28 07:54:16;;;;;;;15.32;5.82;;;45.40;25.80;;;;;;5142764;27;20026;-59
2021/06/28 07:56:42;;;;;;;12.63;5.93;;;46.50;25.40;;;;;;5146408;27;20024;-60
2021/06/28 07:59:08;;;;;;;9.60;5.35;;;46.80;24.80;;;;;;5119469;27;20027;-58
2021/06/28 08:01:34;;;;;;;12.10;6.32;;;47.10;24.80;;;;;;5121607;28;20560;-59
2021/06/28 08:03:59;;;;;;;13.70;6.88;;;47.80;24.40;;;;;;5121502;28;20375;-60
2021/06/28 08:06:25;;;;;;;12.70;6.57;;;48.80;24.10;;;;;;5115240;28;20194;-59
2021/06/28 08:08:51;;;;;;;7.45;6.57;;;50.00;23.60;;;;;;5140966;27;20430;-61
2021/06/28 08:11:20;;;;;;;9.63;5.70;;;50.60;23.10;;;;;;5134417;27;20038;-59
2021/06/28 08:13:48;;;;;;;13.77;6.82;;;51.40;22.90;;;;;;5118840;27;20071;-58
2021/06/28 08:16:18;;;;;;;16.98;6.47;;;52.10;22.40;;;;;;5148225;27;20102;-60
2021/06/28 08:18:47;;;;;;;16.73;5.80;;;51.80;22.50;;;;;;5133990;27;20020;-60
2021/06/28 08:21:13;;;;;;;11.63;6.32;;;51.60;22.40;;;;;;5131836;27;20061;-59
2021/06/28 08:23:39;;;;;;;9.15;6.35;;;51.80;22.50;;;;;;5135546;27;20110;-59
2021/06/28 08:26:06;;;;;;;9.80;6.30;;;52.40;22.20;;;;;;5132389;28;20027;-58
2021/06/28 08:28:32;;;;;;;9.23;6.40;;;52.30;22.20;;;;;;5113231;28;20027;-58
2021/06/28 08:30:58;;;;;;;10.85;6.40;;;52.80;22.20;;;;;;5142558;27;20034;-58
2021/06/28 08:33:24;;;;;;;8.63;6.65;;;52.90;22.00;;;;;;5128547;27;20042;-59
2021/06/28 08:35:50;;;;;;;11.13;7.00;;;52.60;21.90;;;;;;5124061;27;20033;-61
2021/06/28 08:38:16;;;;;;;9.63;6.75;;;53.10;22.00;;;;;;5131345;27;20026;-59
2021/06/28 08:40:42;;;;;;;12.48;7.30;;;53.60;21.70;;;;;;5150601;27;20034;-59
2021/06/28 08:43:09;;;;;;;11.10;6.43;;;53.60;21.60;;;;;;5132460;27;20100;-59
2021/06/28 08:45:40;;;;;;;12.30;6.95;;;54.10;21.70;;;;;;5132293;27;20412;-58
2021/06/28 08:48:08;;;;;;;10.67;6.50;;;54.60;22.00;;;;;;5134456;27;20105;-56
2021/06/28 08:50:39;;;;;;;9.05;7.53;;;55.20;21.50;;;;;;5143513;27;20030;-61
2021/06/28 08:53:07;;;;;;;10.55;5.80;;;55.30;21.00;;;;;;5128916;27;20137;-58
2021/06/28 08:55:34;;;;;;;8.55;6.10;;;55.40;21.30;;;;;;5136810;27;20018;-62
2021/06/28 08:58:05;;;;;;;8.18;6.75;;;55.80;21.30;;;;;;5126717;27;20075;-61
2021/06/28 09:00:31;;;;;;;7.47;5.88;;;54.90;21.00;;;;;;5121330;28;20317;-59
2021/06/28 09:03:03;;;;;;;10.63;6.50;;;54.30;21.50;;;;;;5113654;28;20092;-58
2021/06/28 09:05:48;;;;;;;11.48;7.07;;;54.60;21.30;;;;;;5110340;28;20115;-60
2021/06/28 09:08:16;;;;;;;11.95;6.38;;;54.10;21.30;;;;;;5115556;27;20041;-60
2021/06/28 09:10:44;;;;;;;10.65;7.38;;;53.70;21.40;;;;;;5112513;27;20460;-66
2021/06/28 09:13:12;;;;;;;8.65;6.32;;;53.20;21.60;;;;;;5135613;27;20122;-61
2021/06/28 09:15:44;;;;;;;9.02;6.85;;;52.60;21.90;;;;;;5125702;27;20030;-61
2021/06/28 09:18:25;;;;;;;11.38;6.03;;;51.90;22.10;;;;;;5141136;27;20027;-62
2021/06/28 09:21:09;;;;;;;11.32;5.47;;;51.20;22.60;;;;;;5133928;27;20365;-60
2021/06/28 09:23:39;;;;;;;11.88;5.55;;;50.40;23.10;;;;;;5144053;27;20039;-63
2021/06/28 09:26:14;;;;;;;11.93;5.00;;;48.90;23.30;;;;;;5125220;27;20055;-63
2021/06/28 09:28:43;;;;;;;8.60;5.60;;;46.30;24.20;;;;;;5112710;27;20035;-61
2021/06/28 09:31:33;;;;;;;10.68;4.65;;;43.90;25.70;;;;;;5123169;27;20030;-59
2021/06/28 09:34:06;;;;;;;12.63;5.38;;;42.10;27.00;;;;;;5140901;27;20055;-59
2021/06/28 09:36:41;;;;;;;18.42;5.97;;;40.70;28.10;;;;;;5146584;27;20489;-59
2021/06/28 09:39:25;;;;;;;13.98;5.70;;;39.70;29.10;;;;;;5128636;27;20038;-60
2021/06/28 09:41:57;;;;;;;15.20;5.60;;;38.40;30.20;;;;;;5153336;27;20067;-60
2021/06/28 09:44:28;;;;;;;15.93;4.63;;;37.60;31.10;;;;;;5127721;27;20553;-60
2021/06/28 09:47:16;;;;;;;10.18;4.47;;;36.90;32.00;;;;;;5135613;27;20467;-60
2021/06/28 09:50:08;;;;;;;11.95;5.05;;;36.30;33.00;;;;;;5134900;27;20517;-60
2021/06/28 09:52:39;;;;;;;10.90;4.50;;;35.90;33.60;;;;;;5148944;27;20109;-60
2021/06/28 09:55:20;;;;;;;8.65;5.50;;;35.50;33.80;;;;;;5127568;27;20035;-62
2021/06/28 09:58:17;;;;;;;8.55;5.53;;;34.80;35.10;;;;;;5117843;27;20027;-61
2021/06/28 10:00:48;;;;;;;8.65;4.47;;;34.60;35.80;;;;;;5123404;27;20049;-60
2021/06/28 10:03:44;;;;;;;10.45;5.47;;;34.50;35.80;;;;;;5120909;27;20045;-56
2021/06/28 10:06:16;;;;;;;11.23;5.32;;;34.40;36.10;;;;;;5119334;27;20114;-57
2021/06/28 10:08:45;;;;;;;9.07;5.22;;;34.10;36.60;;;;;;5137199;27;20035;-58
2021/06/28 10:11:22;;;;;;;5.80;4.50;;;33.90;36.70;;;;;;5140644;27;20097;-60
2021/06/28 10:13:57;;;;;;;9.48;4.50;;;33.90;36.70;;;;;;5145000;27;20027;-60
2021/06/28 10:16:27;;;;;;;8.18;4.85;;;34.00;36.50;;;;;;5135415;27;20058;-59
2021/06/28 10:18:55;;;;;;;11.70;4.32;;;33.80;37.00;;;;;;5132894;27;20046;-58
2021/06/28 10:21:22;;;;;;;11.38;4.95;;;33.50;37.00;;;;;;5149068;27;20149;-60
2021/06/28 10:23:48;;;;;;;9.88;4.60;;;33.40;37.30;;;;;;5120377;27;20020;-60
2021/06/28 10:26:15;;;;;;;5.43;4.85;;;33.10;37.70;;;;;;5138881;27;20515;-60
2021/06/28 10:28:42;;;;;;;8.07;5.25;;;33.20;37.90;;;;;;5140027;27;20045;-59
2021/06/28 10:31:09;;;;;;;9.73;5.43;;;33.30;38.10;;;;;;5143296;27;20443;-59
2021/06/28 10:33:37;;;;;;;6.15;5.30;;;33.20;38.10;;;;;;5122906;27;20027;-60
2021/06/28 10:36:11;;;;;;;11.82;5.13;;;33.40;38.20;;;;;;5139000;27;20047;-60
2021/06/28 10:38:45;;;;;;;8.98;5.78;;;33.40;38.70;;;;;;5091500;27;20641;-57
2021/06/28 10:41:12;;;;;;;10.18;5.38;;;33.30;38.60;;;;;;5124721;27;20060;-61
2021/06/28 10:43:39;;;;;;;9.82;4.80;;;33.30;38.50;;;;;;5142830;27;20318;-58
2021/06/28 10:46:08;;;;;;;9.18;4.95;;;33.40;38.50;;;;;;5119505;27;20149;-57
2021/06/28 10:48:50;;;;;;;10.30;4.82;;;33.30;38.70;;;;;;5146001;27;20403;-59
2021/06/28 10:51:19;;;;;;;8.80;4.50;;;33.30;38.40;;;;;;5114826;27;20100;-61
2021/06/28 10:53:54;;;;;;;6.55;4.28;;;33.30;38.40;;;;;;5134387;27;20480;-60
2021/06/28 10:56:30;;;;;;;8.35;4.85;;;33.50;38.50;;;;;;5142114;27;20027;-59
2021/06/28 10:58:57;;;;;;;11.52;5.45;;;33.50;38.40;;;;;;5149274;27;20105;-61
2021/06/28 11:01:42;;;;;;;10.75;5.53;;;33.20;38.50;;;;;;5132319;27;20039;-59
2021/06/28 11:04:12;;;;;;;10.00;5.75;;;33.40;38.50;;;;;;5146848;27;20026;-60
2021/06/28 11:07:00;;;;;;;8.00;5.00;;;33.20;38.50;;;;;;5133923;27;20045;-60
2021/06/28 11:09:37;;;;;;;11.75;4.70;;;33.20;38.20;;;;;;5127899;27;20019;-61
2021/06/28 11:12:08;;;;;;;9.00;4.85;;;33.30;38.00;;;;;;5124990;27;20118;-60
2021/06/28 11:14:38;;;;;;;18.25;5.78;;;33.30;37.80;;;;;;5119424;27;20029;-63
2021/06/28 11:17:08;;;;;;;9.30;4.90;;;33.50;38.20;;;;;;5117347;27;20688;-60
2021/06/28 11:19:53;;;;;;;7.85;5.10;;;33.50;37.70;;;;;;5126149;27;20046;-61
2021/06/28 11:22:31;;;;;;;7.68;4.63;;;33.30;38.10;;;;;;5138745;27;20039;-61
2021/06/28 11:25:05;;;;;;;6.43;4.40;;;33.10;38.40;;;;;;5126854;27;20473;-60
2021/06/28 11:27:31;;;;;;;11.00;4.30;;;33.10;38.60;;;;;;5120201;27;20534;-59
2021/06/28 11:29:58;;;;;;;6.93;4.30;;;33.30;38.30;;;;;;5125904;27;20027;-59
2021/06/28 11:32:28;;;;;;;11.57;4.43;;;33.50;38.20;;;;;;5128401;27;20030;-58
2021/06/28 11:34:56;;;;;;;10.40;4.70;;;33.60;38.00;;;;;;5127301;27;20027;-58
2021/06/28 11:37:22;;;;;;;10.63;4.22;;;33.70;37.70;;;;;;5116264;27;20018;-56
2021/06/28 11:40:15;;;;;;;9.57;5.47;;;33.50;38.00;;;;;;5133501;27;20019;-59
2021/06/28 11:42:59;;;;;;;9.02;4.53;;;33.40;38.30;;;;;;5119346;27;20193;-60
2021/06/28 11:45:46;;;;;;;9.10;4.30;;;33.60;38.00;;;;;;5128143;27;20031;-58
2021/06/28 11:48:34;;;;;;;9.85;5.47;;;33.60;37.90;;;;;;5112732;27;20508;-60
2021/06/28 11:51:00;;;;;;;27.63;5.72;;;33.80;37.60;;;;;;5133608;27;20071;-54
2021/06/28 11:53:27;;;;;;;13.55;5.28;;;33.60;37.50;;;;;;5128721;27;20585;-59
2021/06/28 11:55:53;;;;;;;15.93;4.70;;;33.80;37.60;;;;;;5150099;27;20023;-61
2021/06/28 11:58:25;;;;;;;12.38;4.93;;;33.90;37.30;;;;;;5109811;27;20031;-58
2021/06/28 12:01:04;;;;;;;7.50;3.97;;;34.00;37.10;;;;;;5118690;27;20046;-58
2021/06/28 12:03:37;;;;;;;11.07;4.57;;;34.00;36.50;;;;;;5112825;27;20038;-59
2021/06/28 12:06:07;;;;;;;8.10;4.07;;;34.10;36.60;;;;;;5146629;27;20149;-58
2021/06/28 12:08:33;;;;;;;7.72;5.10;;;34.10;36.50;;;;;;5139735;27;20023;-61
2021/06/28 12:11:00;;;;;;;9.48;4.00;;;34.20;36.90;;;;;;5119879;27;20042;-61
2021/06/28 12:13:30;;;;;;;11.98;3.92;;;34.10;36.80;;;;;;5136300;27;20105;-64
2021/06/28 12:15:56;;;;;;;7.97;4.00;;;34.00;36.80;;;;;;5123514;27;20027;-62
2021/06/28 12:18:26;;;;;;;5.20;4.10;;;33.90;36.90;;;;;;5120839;27;20122;-56
2021/06/28 12:20:57;;;;;;;6.18;4.25;;;33.90;36.60;;;;;;5111893;27;20039;-58
2021/06/28 12:23:24;;;;;;;9.50;4.07;;;34.00;36.60;;;;;;5132852;27;20023;-53
2021/06/28 12:25:50;;;;;;;7.35;4.40;;;34.00;36.30;;;;;;5109223;27;20027;-51
2021/06/28 12:28:28;;;;;;;6.38;4.47;;;34.00;36.30;;;;;;5093761;28;20092;-60
2021/06/28 12:30:55;;;;;;;7.63;3.95;;;34.20;36.20;;;;;;5101210;27;20031;-60
2021/06/28 12:33:21;;;;;;;8.52;3.80;;;34.30;35.90;;;;;;5116746;27;20490;-62
2021/06/28 12:35:58;;;;;;;12.73;4.53;;;34.40;35.60;;;;;;5112733;27;20022;-56
2021/06/28 12:38:25;;;;;;;11.70;6.28;;;34.60;35.50;;;;;;5135387;27;20019;-53
2021/06/28 12:40:51;;;;;;;6.10;3.42;;;34.70;35.60;;;;;;5118412;27;20043;-57
2021/06/28 12:43:19;;;;;;;9.52;4.68;;;34.70;35.00;;;;;;5121219;27;20023;-60
2021/06/28 12:45:46;;;;;;;9.05;3.50;;;34.80;35.40;;;;;;5128974;27;20033;-60
2021/06/28 12:48:25;;;;;;;10.23;3.58;;;34.80;35.30;;;;;;5125515;27;20113;-61
2021/06/28 12:51:05;;;;;;;13.57;4.63;;;34.80;35.10;;;;;;5146006;27;20110;-59